createdAt,value
2019-02-02T00:02:23.511Z,39.63
2019-02-02T00:04:54.057Z,43.90
2019-02-02T00:07:24.525Z,39.23
2019-02-02T00:09:55.112Z,32.87
2019-02-02T00:12:25.541Z,22.03
2019-02-02T00:14:56.300Z,22.80
2019-02-02T00:17:26.757Z,27.60
2019-02-02T00:19:56.991Z,27.50
2019-02-02T00:22:26.950Z,29.30
2019-02-02T00:24:56.880Z,33.57
2019-02-02T00:27:27.326Z,41.43
2019-02-02T00:29:57.625Z,34.80
2019-02-02T00:32:28.478Z,38.83
2019-02-02T00:34:58.444Z,36.60
2019-02-02T00:37:28.437Z,30.77
2019-02-02T00:39:58.582Z,32.43
2019-02-02T00:42:28.789Z,40.80
2019-02-02T00:44:59.283Z,43.63
2019-02-02T00:47:29.774Z,37.93
2019-02-02T00:50:00.354Z,35.77
2019-02-02T00:52:30.900Z,32.17
2019-02-02T00:55:01.461Z,31.30
2019-02-02T00:57:31.683Z,29.27
2019-02-02T01:00:02.061Z,28.90
2019-02-02T01:02:32.541Z,29.27
2019-02-02T01:05:02.810Z,19.13
2019-02-02T01:07:32.739Z,23.43
2019-02-02T01:10:03.213Z,25.83
2019-02-02T01:12:33.833Z,26.57
2019-02-02T01:15:03.474Z,27.80
2019-02-02T01:17:33.867Z,24.63
2019-02-02T01:20:04.419Z,24.67
2019-02-02T01:22:35.025Z,23.67
2019-02-02T01:25:06.036Z,24.67
2019-02-02T01:27:36.286Z,26.40
2019-02-02T01:30:08.411Z,28.87
2019-02-02T01:32:38.983Z,31.73
2019-02-02T01:35:10.818Z,31.53
2019-02-02T01:37:41.018Z,32.23
2019-02-02T01:40:14.069Z,33.73
2019-02-02T01:42:44.702Z,31.37
2019-02-02T01:45:23.418Z,31.67
2019-02-02T01:47:53.833Z,32.30
2019-02-02T01:50:25.082Z,32.13
2019-02-02T01:52:55.472Z,29.87
2019-02-02T01:55:25.998Z,30.43
2019-02-02T01:57:56.432Z,30.83
2019-02-02T02:00:28.680Z,23.97
2019-02-02T02:02:58.951Z,26.63
2019-02-02T02:05:29.459Z,26.00
2019-02-02T02:08:00.037Z,24.97
2019-02-02T02:10:30.623Z,26.00
2019-02-02T02:13:00.894Z,27.03
2019-02-02T02:15:31.143Z,24.50
2019-02-02T02:18:01.613Z,25.27
2019-02-02T02:20:31.846Z,26.27
2019-02-02T02:23:02.418Z,27.90
2019-02-02T02:25:32.632Z,26.40
2019-02-02T02:28:02.856Z,25.73
2019-02-02T02:30:33.497Z,25.80
2019-02-02T02:33:03.869Z,28.57
2019-02-02T02:35:34.490Z,24.80
2019-02-02T02:38:05.081Z,21.57
2019-02-02T02:40:35.671Z,24.83
2019-02-02T02:43:06.361Z,25.53
2019-02-02T02:45:36.826Z,25.07
2019-02-02T02:48:07.724Z,23.67
2019-02-02T02:50:38.247Z,24.03
2019-02-02T02:53:08.736Z,26.60
2019-02-02T02:55:39.545Z,25.63
2019-02-02T02:58:10.110Z,26.97
2019-02-02T03:00:40.720Z,24.80
2019-02-02T03:03:11.119Z,25.73
2019-02-02T03:05:41.088Z,26.93
2019-02-02T03:08:11.611Z,25.00
2019-02-02T03:10:42.144Z,25.77
2019-02-02T03:13:12.636Z,23.33
2019-02-02T03:15:43.164Z,23.40
2019-02-02T03:18:13.726Z,24.03
2019-02-02T03:20:44.296Z,24.63
2019-02-02T03:23:14.251Z,23.00
2019-02-02T03:25:44.737Z,25.17
2019-02-02T03:28:15.409Z,24.83
2019-02-02T03:30:45.946Z,24.67
2019-02-02T03:33:16.552Z,25.33
2019-02-02T03:35:46.815Z,23.00
2019-02-02T03:38:17.386Z,25.00
2019-02-02T03:40:47.594Z,25.53
2019-02-02T03:43:17.793Z,25.17
2019-02-02T03:45:47.681Z,23.83
2019-02-02T03:48:17.934Z,23.87
2019-02-02T03:50:48.593Z,24.53
2019-02-02T03:53:18.721Z,25.57
2019-02-02T03:55:49.290Z,21.53
2019-02-02T03:58:19.558Z,26.10
2019-02-02T04:00:50.127Z,26.10
2019-02-02T04:03:20.602Z,26.17
2019-02-02T04:05:50.890Z,25.03
2019-02-02T04:08:21.153Z,24.33
2019-02-02T04:10:51.359Z,26.77
2019-02-02T04:13:21.574Z,27.70
2019-02-02T04:15:52.146Z,26.87
2019-02-02T04:18:22.369Z,26.57
2019-02-02T04:20:52.940Z,26.83
2019-02-02T04:23:22.807Z,27.30
2019-02-02T04:25:53.367Z,28.43
2019-02-02T04:28:23.827Z,27.33
2019-02-02T04:30:54.519Z,27.27
2019-02-02T04:33:25.612Z,25.60
2019-02-02T04:35:55.988Z,29.50
2019-02-02T04:38:26.226Z,25.03
2019-02-02T04:40:56.156Z,26.60
2019-02-02T04:43:26.664Z,25.53
2019-02-02T04:45:57.294Z,26.47
2019-02-02T04:48:27.756Z,26.53
2019-02-02T04:50:58.262Z,26.03
2019-02-02T04:53:28.467Z,27.00
2019-02-02T04:55:58.967Z,26.77
2019-02-02T04:58:29.349Z,25.47
2019-02-02T05:00:59.826Z,28.13
2019-02-02T05:03:29.690Z,26.37
2019-02-02T05:06:00.428Z,28.47
2019-02-02T05:08:30.606Z,27.27
2019-02-02T05:11:01.317Z,27.83
2019-02-02T05:13:32.024Z,27.57
2019-02-02T05:16:02.596Z,26.73
2019-02-02T05:18:32.859Z,28.13
2019-02-02T05:21:03.088Z,26.93
2019-02-02T05:23:33.330Z,27.53
2019-02-02T05:26:03.556Z,28.33
2019-02-02T05:28:34.041Z,28.13
2019-02-02T05:31:04.315Z,27.13
2019-02-02T05:33:34.946Z,28.30
2019-02-02T05:36:05.325Z,26.67
2019-02-02T05:38:35.839Z,27.47
2019-02-02T05:41:06.529Z,28.03
2019-02-02T05:43:37.426Z,27.30
2019-02-02T05:46:07.445Z,29.23
2019-02-02T05:48:37.654Z,29.13
2019-02-02T05:51:07.793Z,30.00
2019-02-02T05:53:37.959Z,28.67
2019-02-02T05:56:08.439Z,28.83
2019-02-02T05:58:38.651Z,27.27
2019-02-02T06:01:12.487Z,26.70
2019-02-02T06:03:43.171Z,28.40
2019-02-02T06:06:13.750Z,29.10
2019-02-02T06:08:44.287Z,27.90
2019-02-02T06:11:14.782Z,27.03
2019-02-02T06:13:45.232Z,30.40
2019-02-02T06:16:14.780Z,27.90
2019-02-02T06:18:45.047Z,29.53
2019-02-02T06:21:15.216Z,27.67
2019-02-02T06:23:56.567Z,29.27
2019-02-02T06:26:27.018Z,29.00
2019-02-02T06:28:57.224Z,28.03
2019-02-02T06:31:27.611Z,27.37
2019-02-02T06:33:58.091Z,27.07
2019-02-02T06:36:28.315Z,29.03
2019-02-02T06:38:58.509Z,29.57
2019-02-02T06:41:28.677Z,28.40
2019-02-02T06:43:58.945Z,28.27
2019-02-02T06:46:29.415Z,26.00
2019-02-02T06:49:01.572Z,25.70
2019-02-02T06:51:32.066Z,27.53
2019-02-02T06:54:02.283Z,29.23
2019-02-02T06:56:32.523Z,28.20
2019-02-02T06:59:02.739Z,28.27
2019-02-02T07:01:32.911Z,22.57
2019-02-02T07:04:03.368Z,28.40
2019-02-02T07:06:33.945Z,26.27
2019-02-02T07:09:06.372Z,26.93
2019-02-02T07:11:36.634Z,27.50
2019-02-02T07:14:06.808Z,26.77
2019-02-02T07:16:37.257Z,28.40
2019-02-02T07:19:07.931Z,28.80
2019-02-02T07:21:38.438Z,28.40
2019-02-02T07:24:08.981Z,30.10
2019-02-02T07:26:39.482Z,27.17
2019-02-02T07:29:09.687Z,28.63
2019-02-02T07:31:39.659Z,27.60
2019-02-02T07:34:09.863Z,27.93
2019-02-02T07:36:59.143Z,27.80
2019-02-02T07:39:29.382Z,29.23
2019-02-02T07:41:59.860Z,29.67
2019-02-02T07:44:30.226Z,28.93
2019-02-02T07:47:00.551Z,29.40
2019-02-02T07:49:30.750Z,27.27
2019-02-02T07:52:01.109Z,25.43
2019-02-02T07:54:33.200Z,28.03
2019-02-02T07:57:04.025Z,25.00
2019-02-02T07:59:34.595Z,26.97
2019-02-02T08:02:04.953Z,26.83
2019-02-02T08:04:34.924Z,27.20
2019-02-02T08:07:05.260Z,26.80
2019-02-02T08:09:35.699Z,27.87
2019-02-02T08:12:06.167Z,26.80
2019-02-02T08:14:36.402Z,26.20
2019-02-02T08:17:06.727Z,26.67
2019-02-02T08:19:36.951Z,29.10
2019-02-02T08:22:06.767Z,27.60
2019-02-02T08:24:38.681Z,26.80
2019-02-02T08:27:09.248Z,29.30
2019-02-02T08:29:39.906Z,28.97
2019-02-02T08:32:10.152Z,26.60
2019-02-02T08:34:40.708Z,28.17
2019-02-02T08:37:10.969Z,29.77
2019-02-02T08:39:41.220Z,29.53
2019-02-02T08:42:11.951Z,27.87
2019-02-02T08:44:42.429Z,29.23
2019-02-02T08:47:11.973Z,30.17
2019-02-02T08:49:42.307Z,26.70
2019-02-02T08:52:12.611Z,27.73
2019-02-02T08:54:43.302Z,30.23
2019-02-02T08:57:13.614Z,30.33
2019-02-02T08:59:43.514Z,30.13
2019-02-02T09:02:13.729Z,28.97
2019-02-02T09:04:44.085Z,29.07
2019-02-02T09:07:14.261Z,30.53
2019-02-02T09:09:44.519Z,29.37
2019-02-02T09:12:15.075Z,29.90
2019-02-02T09:14:45.351Z,30.40
2019-02-02T09:17:15.845Z,31.07
2019-02-02T09:19:45.839Z,30.27
2019-02-02T09:22:16.161Z,28.70
2019-02-02T09:24:46.425Z,26.97
2019-02-02T09:27:16.717Z,29.20
2019-02-02T09:29:47.828Z,29.90
2019-02-02T09:32:18.595Z,27.47
2019-02-02T09:34:48.767Z,30.60
2019-02-02T09:37:19.391Z,27.83
2019-02-02T09:39:50.091Z,23.70
2019-02-02T09:42:20.679Z,28.33
2019-02-02T09:44:51.253Z,26.90
2019-02-02T09:47:21.749Z,25.10
2019-02-02T09:49:52.317Z,26.07
2019-02-02T09:52:22.851Z,24.30
2019-02-02T09:54:53.323Z,27.47
2019-02-02T09:57:23.719Z,28.80
2019-02-02T09:59:55.511Z,27.77
2019-02-02T10:02:27.175Z,26.00
2019-02-02T10:04:57.567Z,23.60
2019-02-02T10:07:27.877Z,23.03
2019-02-02T10:09:58.691Z,21.90
2019-02-02T10:12:28.905Z,24.40
2019-02-02T10:14:59.581Z,25.93
2019-02-02T10:17:29.468Z,23.63
2019-02-02T10:19:59.669Z,23.07
2019-02-02T10:22:30.047Z,25.00
2019-02-02T10:25:00.637Z,27.70
2019-02-02T10:27:30.909Z,28.40
2019-02-02T10:30:00.871Z,26.37
2019-02-02T10:32:49.784Z,29.10
2019-02-02T10:35:20.087Z,28.33
2019-02-02T10:37:50.671Z,29.10
2019-02-02T10:40:21.394Z,26.07
2019-02-02T10:42:51.913Z,26.77
2019-02-02T10:45:22.296Z,27.03
2019-02-02T10:47:52.583Z,26.03
2019-02-02T10:50:41.939Z,24.87
2019-02-02T10:53:12.151Z,24.97
2019-02-02T10:55:42.727Z,27.63
2019-02-02T10:58:13.147Z,25.30
2019-02-02T11:01:02.477Z,24.10
2019-02-02T11:03:32.694Z,24.07
2019-02-02T11:06:02.189Z,24.27
2019-02-02T11:08:32.639Z,24.17
2019-02-02T11:11:03.172Z,22.77
2019-02-02T11:13:33.418Z,21.93
2019-02-02T11:16:03.844Z,25.20
2019-02-02T11:18:33.877Z,25.10
2019-02-02T11:21:04.635Z,22.40
2019-02-02T11:23:35.345Z,21.60
2019-02-02T11:26:05.952Z,17.97
2019-02-02T11:28:36.454Z,16.00
2019-02-02T11:31:07.247Z,18.33
2019-02-02T11:33:37.391Z,15.17
2019-02-02T11:36:07.773Z,15.97
2019-02-02T11:38:38.099Z,14.97
2019-02-02T11:41:08.727Z,15.80
2019-02-02T11:43:39.205Z,14.67
2019-02-02T11:46:09.537Z,14.13
2019-02-02T11:48:39.811Z,14.83
2019-02-02T11:51:10.291Z,15.27
2019-02-02T11:53:40.583Z,14.73
2019-02-02T11:56:11.337Z,13.77
2019-02-02T11:58:41.477Z,14.20
2019-02-02T12:01:12.165Z,13.23
2019-02-02T12:03:42.733Z,12.97
2019-02-02T12:06:13.275Z,10.90
2019-02-02T12:08:43.566Z,12.03
2019-02-02T12:11:13.475Z,10.83
2019-02-02T12:13:43.713Z,11.13
2019-02-02T12:16:13.247Z,10.30
2019-02-02T12:18:43.541Z,10.30
2019-02-02T12:21:14.013Z,8.70
2019-02-02T12:23:44.607Z,9.53
2019-02-02T12:26:15.262Z,11.70
2019-02-02T12:28:45.399Z,10.53
2019-02-02T12:31:16.068Z,10.23
2019-02-02T12:33:46.324Z,10.13
2019-02-02T12:36:16.793Z,9.60
2019-02-02T12:38:47.097Z,9.53
2019-02-02T12:41:17.647Z,8.90
2019-02-02T12:43:47.891Z,9.73
2019-02-02T12:46:18.655Z,11.33
2019-02-02T12:48:48.494Z,12.37
2019-02-02T12:51:19.054Z,11.90
2019-02-02T12:53:49.881Z,13.20
2019-02-02T12:56:20.455Z,17.20
2019-02-02T12:58:51.089Z,18.53
2019-02-02T13:01:22.371Z,18.07
2019-02-02T13:04:01.267Z,18.57
2019-02-02T13:06:24.415Z,15.87
2019-02-02T13:08:54.788Z,15.47
2019-02-02T13:11:25.264Z,17.00
2019-02-02T13:13:55.405Z,16.03
2019-02-02T13:16:26.085Z,14.10
2019-02-02T13:18:56.651Z,17.50
2019-02-02T13:21:27.249Z,15.90
2019-02-02T13:23:57.892Z,14.80
2019-02-02T13:26:27.690Z,14.87
2019-02-02T13:28:58.267Z,12.70
2019-02-02T13:31:28.505Z,14.33
2019-02-02T13:33:58.780Z,14.87
2019-02-02T13:36:29.264Z,13.23
2019-02-02T13:38:59.953Z,12.63
2019-02-02T13:41:30.415Z,11.90
2019-02-02T13:44:00.639Z,12.87
2019-02-02T13:46:31.240Z,11.80
2019-02-02T13:49:01.729Z,12.47
2019-02-02T13:51:32.087Z,11.47
2019-02-02T13:54:01.981Z,10.80
2019-02-02T13:56:32.575Z,10.70
2019-02-02T13:59:02.863Z,9.63
2019-02-02T14:01:41.703Z,9.00
2019-02-02T14:04:05.673Z,8.93
2019-02-02T14:06:35.833Z,9.17
2019-02-02T14:09:09.373Z,10.20
2019-02-02T14:11:39.590Z,13.03
2019-02-02T14:14:10.102Z,13.47
2019-02-02T14:16:40.277Z,14.50
2019-02-02T14:19:10.493Z,17.63
2019-02-02T14:21:41.233Z,14.30
2019-02-02T14:24:11.267Z,13.30
2019-02-02T14:26:41.201Z,15.03
2019-02-02T14:29:11.911Z,12.53
2019-02-02T14:31:42.079Z,15.20
2019-02-02T14:34:39.822Z,14.37
2019-02-02T14:37:03.402Z,18.23
2019-02-02T14:39:33.985Z,18.97
2019-02-02T14:42:04.364Z,21.53
2019-02-02T14:44:34.907Z,21.13
2019-02-02T14:47:05.140Z,19.23
2019-02-02T14:49:35.523Z,17.73
2019-02-02T14:52:07.129Z,18.50
2019-02-02T14:54:37.718Z,19.93
2019-02-02T14:57:08.352Z,17.60
2019-02-02T14:59:38.675Z,15.53
2019-02-02T15:02:09.138Z,15.07
2019-02-02T15:04:39.107Z,17.00
2019-02-02T15:07:09.043Z,19.13
2019-02-02T15:09:39.523Z,19.43
2019-02-02T15:12:09.381Z,18.07
2019-02-02T15:14:39.701Z,17.63
2019-02-02T15:17:10.365Z,17.90
2019-02-02T15:19:40.896Z,15.93
2019-02-02T15:22:11.385Z,17.10
2019-02-02T15:24:41.643Z,24.90
2019-02-02T15:27:14.692Z,19.40
2019-02-02T15:29:44.510Z,16.03
2019-02-02T15:32:15.162Z,22.20
2019-02-02T15:34:45.057Z,20.00
2019-02-02T15:37:15.576Z,20.77
2019-02-02T15:39:45.895Z,19.67
2019-02-02T15:42:16.431Z,22.20
2019-02-02T15:44:46.959Z,26.13
2019-02-02T15:47:17.343Z,25.23
2019-02-02T15:49:47.822Z,24.13
2019-02-02T15:52:18.053Z,27.20
2019-02-02T15:54:48.725Z,30.23
2019-02-02T15:57:19.202Z,26.63
2019-02-02T15:59:49.763Z,24.83
2019-02-02T16:02:20.022Z,25.20
2019-02-02T16:04:50.322Z,27.20
2019-02-02T16:07:20.576Z,25.63
2019-02-02T16:09:51.150Z,23.33
2019-02-02T16:12:21.403Z,22.90
2019-02-02T16:14:52.101Z,28.10
2019-02-02T16:17:22.819Z,28.23
2019-02-02T16:19:53.327Z,24.07
2019-02-02T16:22:23.248Z,24.97
2019-02-02T16:24:53.803Z,26.83
2019-02-02T16:27:24.466Z,23.50
2019-02-02T16:29:55.047Z,18.47
2019-02-02T16:32:24.879Z,26.50
2019-02-02T16:34:55.240Z,22.17
2019-02-02T16:37:25.515Z,25.97
2019-02-02T16:39:55.865Z,27.67
2019-02-02T16:42:26.011Z,21.57
2019-02-02T16:44:56.718Z,21.90
2019-02-02T16:47:27.300Z,31.13
2019-02-02T16:49:57.361Z,23.90
2019-02-02T16:52:27.592Z,26.37
2019-02-02T16:54:57.804Z,26.30
2019-02-02T16:57:34.289Z,29.80
2019-02-02T17:00:04.487Z,25.43
2019-02-02T17:02:34.322Z,28.17
2019-02-02T17:05:04.539Z,27.63
2019-02-02T17:07:35.025Z,28.53
2019-02-02T17:10:07.405Z,33.37
2019-02-02T17:12:37.938Z,29.23
2019-02-02T17:15:08.483Z,33.07
2019-02-02T17:17:39.161Z,27.47
2019-02-02T17:20:12.897Z,37.83
2019-02-02T17:22:43.248Z,37.13
2019-02-02T17:25:15.645Z,38.07
2019-02-02T17:27:46.087Z,37.87
2019-02-02T17:30:20.210Z,39.23
2019-02-02T17:32:51.263Z,33.43
2019-02-02T17:35:21.562Z,32.50
2019-02-02T17:37:52.041Z,32.40
2019-02-02T17:40:24.840Z,29.80
2019-02-02T17:42:55.625Z,30.90
2019-02-02T17:45:26.680Z,31.10
2019-02-02T17:48:14.187Z,29.10
2019-02-02T17:50:45.229Z,28.93
2019-02-02T17:53:15.712Z,26.80
2019-02-02T17:55:46.595Z,29.47
2019-02-02T17:58:17.177Z,26.93
2019-02-02T18:00:55.430Z,28.40
2019-02-02T18:03:25.657Z,24.00
2019-02-02T18:05:56.346Z,25.27
2019-02-02T18:08:26.944Z,30.03
2019-02-02T18:10:57.737Z,25.83
2019-02-02T18:13:28.012Z,24.03
2019-02-02T18:15:58.587Z,22.73
2019-02-02T18:18:29.236Z,24.00
2019-02-02T18:20:59.471Z,24.37
2019-02-02T18:23:30.011Z,24.43
2019-02-02T18:26:00.556Z,25.00
2019-02-02T18:28:31.081Z,21.87
2019-02-02T18:31:01.084Z,21.97
2019-02-02T18:33:31.673Z,26.00
2019-02-02T18:36:02.257Z,44.20
2019-02-02T18:38:32.855Z,34.00
2019-02-02T18:41:03.424Z,28.20
2019-02-02T18:43:33.647Z,29.20
2019-02-02T18:46:04.810Z,25.67
2019-02-02T18:48:35.178Z,25.17
2019-02-02T18:51:05.351Z,26.17
2019-02-02T18:53:35.684Z,19.27
2019-02-02T18:56:16.355Z,19.93
2019-02-02T18:58:46.549Z,27.33
2019-02-02T19:01:17.043Z,22.03
2019-02-02T19:03:47.315Z,28.03
2019-02-02T19:06:17.871Z,23.90
2019-02-02T19:08:48.165Z,20.67
2019-02-02T19:11:18.667Z,30.30
2019-02-02T19:13:48.925Z,27.03
2019-02-02T19:16:19.555Z,24.17
2019-02-02T19:18:49.763Z,31.87
2019-02-02T19:21:20.335Z,31.77
2019-02-02T19:23:50.960Z,32.00
2019-02-02T19:26:21.531Z,27.43
2019-02-02T19:28:52.075Z,33.63
2019-02-02T19:31:22.653Z,48.60
2019-02-02T19:33:53.143Z,41.47
2019-02-02T19:36:23.723Z,35.63
2019-02-02T19:38:54.233Z,31.97
2019-02-02T19:41:24.778Z,37.80
2019-02-02T19:43:55.024Z,36.30
2019-02-02T19:46:25.517Z,34.33
2019-02-02T19:48:56.056Z,26.80
2019-02-02T19:51:26.569Z,37.87
2019-02-02T19:53:57.151Z,27.53
2019-02-02T19:56:27.683Z,28.40
2019-02-02T19:58:58.209Z,28.40
2019-02-02T20:01:28.843Z,28.97
2019-02-02T20:03:59.347Z,24.47
2019-02-02T20:06:29.675Z,30.83
2019-02-02T20:09:00.212Z,33.37
2019-02-02T20:11:30.719Z,33.23
2019-02-02T20:14:00.998Z,32.93
2019-02-02T20:16:30.883Z,30.47
2019-02-02T20:19:01.600Z,29.03
2019-02-02T20:21:32.136Z,31.13
2019-02-02T20:24:02.711Z,26.37
2019-02-02T20:26:33.313Z,23.87
2019-02-02T20:29:03.668Z,26.00
2019-02-02T20:31:33.919Z,26.03
2019-02-02T20:34:04.595Z,26.20
2019-02-02T20:36:35.143Z,26.03
2019-02-02T20:39:08.103Z,26.90
2019-02-02T20:41:38.665Z,24.53
2019-02-02T20:44:08.612Z,26.07
2019-02-02T20:46:38.426Z,25.07
2019-02-02T20:49:08.653Z,24.03
2019-02-02T20:51:39.266Z,25.07
2019-02-02T20:54:09.857Z,24.57
2019-02-02T20:56:40.437Z,23.80
2019-02-02T20:59:10.932Z,26.30
2019-02-02T21:01:41.487Z,24.53
2019-02-02T21:04:11.999Z,28.27
2019-02-02T21:06:42.579Z,28.00
2019-02-02T21:09:13.315Z,27.83
2019-02-02T21:11:43.637Z,28.40
2019-02-02T21:14:13.819Z,28.50
2019-02-02T21:17:02.419Z,28.27
2019-02-02T21:19:32.828Z,26.93
2019-02-02T21:22:03.399Z,28.77
2019-02-02T21:24:33.942Z,28.67
2019-02-02T21:27:04.641Z,30.67
2019-02-02T21:29:35.341Z,27.63
2019-02-02T21:32:05.289Z,27.63
2019-02-02T21:34:35.519Z,25.60
2019-02-02T21:37:06.406Z,27.20
2019-02-02T21:39:36.731Z,27.20
2019-02-02T21:42:07.033Z,25.43
2019-02-02T21:44:43.155Z,30.53
2019-02-02T21:47:09.943Z,31.93
2019-02-02T21:49:40.521Z,33.33
2019-02-02T21:52:11.087Z,30.17
2019-02-02T21:54:41.812Z,30.67
2019-02-02T21:57:12.410Z,33.07
2019-02-02T21:59:42.977Z,32.77
2019-02-02T22:02:13.519Z,29.40
2019-02-02T22:04:44.061Z,30.50
2019-02-02T22:07:15.159Z,33.07
2019-02-02T22:09:45.379Z,33.27
2019-02-02T22:12:16.019Z,34.03
2019-02-02T22:14:46.053Z,33.33
2019-02-02T22:17:16.243Z,32.93
2019-02-02T22:19:47.111Z,32.80
2019-02-02T22:22:17.327Z,33.13
2019-02-02T22:24:47.577Z,29.13
2019-02-02T22:27:18.263Z,30.27
2019-02-02T22:29:48.550Z,29.03
2019-02-02T22:32:19.713Z,29.53
2019-02-02T22:34:50.449Z,31.03
2019-02-02T22:37:21.055Z,28.23
2019-02-02T22:39:51.287Z,30.13
2019-02-02T22:42:21.883Z,29.77
2019-02-02T22:44:52.853Z,26.90
2019-02-02T22:47:23.335Z,28.03
2019-02-02T22:49:53.619Z,29.83
2019-02-02T22:52:24.219Z,28.30
2019-02-02T22:54:54.472Z,28.87
2019-02-02T22:57:24.757Z,28.93
2019-02-02T22:59:55.480Z,28.93
2019-02-02T23:02:26.162Z,28.93
2019-02-02T23:05:19.012Z,29.70
2019-02-02T23:07:55.185Z,28.50
2019-02-02T23:11:05.713Z,29.37
2019-02-02T23:14:25.959Z,30.27
2019-02-02T23:16:56.371Z,30.03
2019-02-02T23:19:26.992Z,30.07
2019-02-02T23:21:57.638Z,31.77
2019-02-02T23:24:28.291Z,29.47
2019-02-02T23:26:58.293Z,29.70
2019-02-02T23:29:28.957Z,28.60
2019-02-02T23:31:59.626Z,29.83
2019-02-02T23:34:30.332Z,30.37
2019-02-02T23:37:01.035Z,30.40
2019-02-02T23:39:31.616Z,29.60
2019-02-02T23:42:02.149Z,30.10
2019-02-02T23:44:32.367Z,29.93
2019-02-02T23:47:02.923Z,29.50
2019-02-02T23:49:33.538Z,28.37
2019-02-02T23:52:03.129Z,30.23
2019-02-02T23:54:33.755Z,27.00
2019-02-02T23:57:03.304Z,30.60
2019-02-02T23:59:35.352Z,29.10
